Time;durP1;ratioP1;P1;durP2;ratioP2;P2;SDS_P1;SDS_P2;PMS_P1;PMS_P2;Temp;Humidity;BMP_temperature;BMP_pressure;BME280_temperature;BME280_humidity;BME280_pressure;Samples;Min_cycle;Max_cycle;Signal;HPM_P1;HPM_P2
2023/12/04 00:00:45;;;;;;;6.22;2.88;;;;;;;;;;4964360;28;20041;-85
2023/12/04 00:03:10;;;;;;;4.63;2.47;;;;;;;;;;4973458;28;20062;-85
2023/12/04 00:05:37;;;;;;;5.30;2.70;;;;;;;;;;4970999;28;20054;-85
2023/12/04 00:08:02;;;;;;;4.82;2.38;;;;;;;;;;4973710;28;20038;-85
2023/12/04 00:10:28;;;;;;;5.85;2.80;;;;;;;;;;4969936;28;20057;-85
2023/12/04 00:12:53;;;;;;;4.38;2.45;;;;;;;;;;4972226;28;20038;-85
2023/12/04 00:15:20;;;;;;;5.80;2.78;;;;;;;;;;4974922;28;20039;-85
2023/12/04 00:17:46;;;;;;;3.65;2.05;;;;;;;;;;4972152;28;20081;-85
2023/12/04 00:20:11;;;;;;;5.03;2.72;;;;;;;;;;4967278;28;20129;-85
2023/12/04 00:22:37;;;;;;;3.78;2.25;;;;;;;;;;4970884;28;20038;-85
2023/12/04 00:25:04;;;;;;;5.78;2.53;;;;;;;;;;4971115;28;20034;-85
2023/12/04 00:27:30;;;;;;;5.57;2.88;;;;;;;;;;4969706;28;20532;-85
2023/12/04 00:29:56;;;;;;;4.38;2.60;;;;;;;;;;4966671;28;20039;-85
2023/12/04 00:32:22;;;;;;;5.38;2.75;;;;;;;;;;4970246;28;20086;-85
2023/12/04 00:34:47;;;;;;;6.15;2.70;;;;;;;;;;4971663;28;20489;-85
2023/12/04 00:37:13;;;;;;;4.57;2.33;;;;;;;;;;4955781;28;20037;-85
2023/12/04 00:39:38;;;;;;;5.43;2.40;;;;;;;;;;4969719;28;20030;-85
2023/12/04 00:42:04;;;;;;;5.60;2.47;;;;;;;;;;4970272;28;20069;-85
2023/12/04 00:44:29;;;;;;;4.85;2.50;;;;;;;;;;4972197;28;20054;-84
2023/12/04 00:46:55;;;;;;;4.00;1.92;;;;;;;;;;4968672;28;20519;-85
2023/12/04 00:49:20;;;;;;;3.78;2.20;;;;;;;;;;4969030;28;20027;-84
2023/12/04 00:51:46;;;;;;;4.13;2.28;;;;;;;;;;4971298;28;20065;-85
2023/12/04 00:54:11;;;;;;;4.30;2.28;;;;;;;;;;4972171;28;20058;-84
2023/12/04 00:56:40;;;;;;;4.05;2.13;;;;;;;;;;4966960;28;20140;-85
2023/12/04 00:59:07;;;;;;;6.22;2.33;;;;;;;;;;4966372;28;20050;-85
2023/12/04 01:01:33;;;;;;;5.45;2.40;;;;;;;;;;4972478;28;20405;-85
2023/12/04 01:03:59;;;;;;;4.47;2.30;;;;;;;;;;4967104;28;20038;-85
2023/12/04 01:06:25;;;;;;;4.97;2.47;;;;;;;;;;4969460;28;20034;-85
2023/12/04 01:08:50;;;;;;;4.70;2.38;;;;;;;;;;4973115;28;20053;-85
2023/12/04 01:11:17;;;;;;;4.03;2.10;;;;;;;;;;4981399;28;20074;-85
2023/12/04 01:13:42;;;;;;;5.05;2.10;;;;;;;;;;4968132;28;20023;-84
2023/12/04 01:16:09;;;;;;;4.25;2.38;;;;;;;;;;4968203;28;20043;-85
2023/12/04 01:18:35;;;;;;;5.38;2.05;;;;;;;;;;4971280;28;20090;-85
2023/12/04 01:21:00;;;;;;;3.50;2.15;;;;;;;;;;4973411;28;20064;-85
2023/12/04 01:23:26;;;;;;;5.55;2.22;;;;;;;;;;4968611;28;20023;-84
2023/12/04 01:25:51;;;;;;;3.80;2.20;;;;;;;;;;4979725;28;20045;-85
2023/12/04 01:28:17;;;;;;;3.83;2.20;;;;;;;;;;4966817;28;20077;-85
2023/12/04 01:30:42;;;;;;;3.55;1.95;;;;;;;;;;4973174;28;20382;-84
2023/12/04 01:33:08;;;;;;;4.15;2.35;;;;;;;;;;4973619;28;20026;-85
2023/12/04 01:35:34;;;;;;;4.57;2.20;;;;;;;;;;4970776;28;20045;-85
2023/12/04 01:37:59;;;;;;;4.10;2.25;;;;;;;;;;4965926;28;20026;-85
2023/12/04 01:40:26;;;;;;;3.78;2.20;;;;;;;;;;4976379;28;20030;-86
2023/12/04 01:42:52;;;;;;;4.60;2.28;;;;;;;;;;4972903;28;20097;-85
2023/12/04 01:45:19;;;;;;;4.25;2.47;;;;;;;;;;4971410;28;20054;-85
2023/12/04 01:47:45;;;;;;;4.72;2.47;;;;;;;;;;4974203;28;20034;-85
2023/12/04 01:50:12;;;;;;;4.47;2.58;;;;;;;;;;4973128;28;20082;-85
2023/12/04 01:52:37;;;;;;;4.18;2.15;;;;;;;;;;4973648;28;20053;-85
2023/12/04 01:55:05;;;;;;;4.85;2.30;;;;;;;;;;4975055;28;20393;-85
2023/12/04 01:57:30;;;;;;;4.38;2.20;;;;;;;;;;4976618;28;20084;-85
2023/12/04 01:59:56;;;;;;;4.35;2.28;;;;;;;;;;4964218;28;20443;-85
2023/12/04 02:02:21;;;;;;;4.57;2.30;;;;;;;;;;4968008;28;20039;-85
2023/12/04 02:04:47;;;;;;;3.63;2.10;;;;;;;;;;4979765;28;20043;-85
2023/12/04 02:07:12;;;;;;;3.13;1.90;;;;;;;;;;4975762;28;20034;-84
2023/12/04 02:09:38;;;;;;;4.55;2.03;;;;;;;;;;4976362;28;20070;-85
2023/12/04 02:12:04;;;;;;;3.60;2.28;;;;;;;;;;4974665;28;20039;-85
2023/12/04 02:14:29;;;;;;;3.97;2.10;;;;;;;;;;4972326;28;20057;-85
2023/12/04 02:16:56;;;;;;;3.10;1.92;;;;;;;;;;4976603;28;20580;-85
2023/12/04 02:19:22;;;;;;;3.72;2.20;;;;;;;;;;4972825;28;20045;-84
2023/12/04 02:21:47;;;;;;;4.13;2.53;;;;;;;;;;4975348;28;20035;-85
2023/12/04 02:24:13;;;;;;;5.35;2.20;;;;;;;;;;4972491;28;20066;-85
2023/12/04 02:26:49;;;;;;;3.67;2.08;;;;;;;;;;4975700;28;20050;-85
2023/12/04 02:29:31;;;;;;;3.72;2.10;;;;;;;;;;4970777;28;20031;-84
2023/12/04 02:31:58;;;;;;;5.63;2.28;;;;;;;;;;4970302;28;20030;-84
2023/12/04 02:34:24;;;;;;;3.55;2.00;;;;;;;;;;4988679;28;20386;-85
2023/12/04 02:36:51;;;;;;;3.70;2.30;;;;;;;;;;4971279;28;20023;-86
2023/12/04 02:39:17;;;;;;;3.20;1.80;;;;;;;;;;4968770;28;20042;-84
2023/12/04 02:41:42;;;;;;;2.50;1.65;;;;;;;;;;4969766;28;20501;-84
2023/12/04 02:44:08;;;;;;;5.78;2.00;;;;;;;;;;4973089;28;20038;-84
2023/12/04 02:46:33;;;;;;;4.57;2.20;;;;;;;;;;4972664;28;20031;-85
2023/12/04 02:48:58;;;;;;;3.95;2.13;;;;;;;;;;4967769;28;20125;-84
2023/12/04 02:51:26;;;;;;;3.95;1.95;;;;;;;;;;4981771;28;20026;-85
2023/12/04 02:53:51;;;;;;;3.88;1.92;;;;;;;;;;4970138;28;20493;-85
2023/12/04 02:56:17;;;;;;;3.75;1.95;;;;;;;;;;4969034;28;20062;-84
2023/12/04 02:58:42;;;;;;;2.75;1.58;;;;;;;;;;4971468;28;20035;-83
2023/12/04 03:01:08;;;;;;;2.75;1.52;;;;;;;;;;4966455;28;20042;-84
2023/12/04 03:03:33;;;;;;;2.97;1.80;;;;;;;;;;4971307;28;20042;-84
2023/12/04 03:05:59;;;;;;;2.95;1.80;;;;;;;;;;4973530;28;20058;-84
2023/12/04 03:08:24;;;;;;;4.85;1.77;;;;;;;;;;4970357;28;20090;-84
2023/12/04 03:10:49;;;;;;;2.78;1.70;;;;;;;;;;4967865;28;20493;-86
2023/12/04 03:13:15;;;;;;;3.17;1.80;;;;;;;;;;4972731;28;20374;-86
2023/12/04 03:15:40;;;;;;;2.03;1.20;;;;;;;;;;4972189;28;20034;-86
2023/12/04 03:18:06;;;;;;;3.55;1.60;;;;;;;;;;4972377;28;20065;-86
2023/12/04 03:20:34;;;;;;;2.95;1.80;;;;;;;;;;4970562;28;20390;-85
2023/12/04 03:23:00;;;;;;;3.17;1.50;;;;;;;;;;4973705;28;20655;-85
2023/12/04 03:25:25;;;;;;;3.33;1.90;;;;;;;;;;4971346;28;20034;-85
2023/12/04 03:27:51;;;;;;;2.75;1.70;;;;;;;;;;4971479;28;20030;-85
2023/12/04 03:30:16;;;;;;;3.50;1.85;;;;;;;;;;4974261;28;20042;-84
2023/12/04 03:32:42;;;;;;;3.00;1.60;;;;;;;;;;4987485;28;20093;-84
2023/12/04 03:35:07;;;;;;;2.70;1.80;;;;;;;;;;4973486;28;20094;-84
2023/12/04 03:37:33;;;;;;;2.83;1.70;;;;;;;;;;4970345;28;20514;-84
2023/12/04 03:39:58;;;;;;;3.47;2.08;;;;;;;;;;4974989;28;20042;-84
2023/12/04 03:42:24;;;;;;;3.15;1.90;;;;;;;;;;4966508;28;20037;-85
2023/12/04 03:44:49;;;;;;;3.67;1.80;;;;;;;;;;4972503;28;20049;-84
2023/12/04 03:47:15;;;;;;;2.72;1.77;;;;;;;;;;4972672;28;20039;-84
2023/12/04 03:49:40;;;;;;;3.13;1.70;;;;;;;;;;4974879;28;20177;-84
2023/12/04 03:52:06;;;;;;;2.63;1.65;;;;;;;;;;4970427;28;20037;-84
2023/12/04 03:54:31;;;;;;;3.22;1.60;;;;;;;;;;4968731;28;20505;-85
2023/12/04 03:56:57;;;;;;;2.72;1.63;;;;;;;;;;4972284;28;20037;-84
2023/12/04 03:59:22;;;;;;;2.63;1.63;;;;;;;;;;4965252;28;20046;-84
2023/12/04 04:01:47;;;;;;;3.38;1.80;;;;;;;;;;4969123;28;20035;-84
2023/12/04 04:04:13;;;;;;;3.75;1.80;;;;;;;;;;4962113;28;20105;-84
2023/12/04 04:06:38;;;;;;;5.18;1.65;;;;;;;;;;4971245;28;20081;-84
2023/12/04 04:09:05;;;;;;;3.30;1.60;;;;;;;;;;4972590;28;20034;-85
2023/12/04 04:11:30;;;;;;;2.45;1.52;;;;;;;;;;4967705;28;20049;-85
2023/12/04 04:13:56;;;;;;;3.38;1.50;;;;;;;;;;4971124;28;20039;-85
2023/12/04 04:16:21;;;;;;;3.28;1.80;;;;;;;;;;4972041;28;20035;-85
2023/12/04 04:18:46;;;;;;;2.65;1.75;;;;;;;;;;4975405;28;20062;-85
2023/12/04 04:21:12;;;;;;;3.08;1.83;;;;;;;;;;4967846;28;20038;-85
2023/12/04 04:23:37;;;;;;;3.25;1.80;;;;;;;;;;4967481;28;20033;-85
2023/12/04 04:26:03;;;;;;;2.88;1.48;;;;;;;;;;4973901;28;20058;-85
2023/12/04 04:28:28;;;;;;;3.22;1.50;;;;;;;;;;4986976;28;20051;-85
2023/12/04 04:30:54;;;;;;;2.58;1.45;;;;;;;;;;4969203;28;20030;-85
2023/12/04 04:33:19;;;;;;;4.15;1.45;;;;;;;;;;4969601;28;20114;-85
2023/12/04 04:35:45;;;;;;;3.13;1.80;;;;;;;;;;4974428;28;20519;-85
2023/12/04 04:38:10;;;;;;;3.13;1.70;;;;;;;;;;4973501;28;20035;-84
2023/12/04 04:40:36;;;;;;;3.15;1.55;;;;;;;;;;4968246;28;20524;-85
2023/12/04 04:43:01;;;;;;;4.05;1.60;;;;;;;;;;4973864;28;20067;-85
2023/12/04 04:45:26;;;;;;;3.40;1.50;;;;;;;;;;4971589;28;20114;-85
2023/12/04 04:47:52;;;;;;;4.03;1.67;;;;;;;;;;4970952;28;20046;-85
2023/12/04 04:50:17;;;;;;;2.97;1.80;;;;;;;;;;4968469;28;20035;-85
2023/12/04 04:52:43;;;;;;;4.70;1.73;;;;;;;;;;4972228;28;20508;-85
2023/12/04 04:55:08;;;;;;;2.63;1.60;;;;;;;;;;4970849;28;20050;-85
2023/12/04 04:57:34;;;;;;;3.15;1.95;;;;;;;;;;4970103;28;20515;-85
2023/12/04 04:59:59;;;;;;;3.35;1.75;;;;;;;;;;4957650;28;20109;-85
2023/12/04 05:02:25;;;;;;;3.85;1.60;;;;;;;;;;4973578;28;20034;-85
2023/12/04 05:04:50;;;;;;;2.45;1.50;;;;;;;;;;4983077;28;20584;-85
2023/12/04 05:07:16;;;;;;;5.80;1.60;;;;;;;;;;4970280;28;20043;-85
2023/12/04 05:09:41;;;;;;;2.22;1.30;;;;;;;;;;4976740;28;20038;-85
2023/12/04 05:12:07;;;;;;;4.20;1.60;;;;;;;;;;4977362;28;20023;-85
2023/12/04 05:14:32;;;;;;;3.58;1.55;;;;;;;;;;4973149;28;20035;-85
2023/12/04 05:16:58;;;;;;;5.95;1.95;;;;;;;;;;4976759;28;20038;-85
2023/12/04 05:19:23;;;;;;;2.45;1.45;;;;;;;;;;4973980;28;20050;-85
2023/12/04 05:21:49;;;;;;;2.75;1.58;;;;;;;;;;4977594;28;20084;-85
2023/12/04 05:24:17;;;;;;;3.50;1.60;;;;;;;;;;4985626;28;20042;-85
2023/12/04 05:26:43;;;;;;;3.28;1.85;;;;;;;;;;4975398;28;20034;-85
2023/12/04 05:29:08;;;;;;;4.18;2.00;;;;;;;;;;4984650;28;21046;-85
2023/12/04 05:31:34;;;;;;;3.50;1.80;;;;;;;;;;4977503;28;20031;-85
2023/12/04 05:33:59;;;;;;;1.95;1.27;;;;;;;;;;4975670;28;20054;-85
2023/12/04 05:36:24;;;;;;;3.17;2.08;;;;;;;;;;4972651;28;20023;-85
2023/12/04 05:38:50;;;;;;;3.20;1.67;;;;;;;;;;4978539;28;20416;-86
2023/12/04 05:41:15;;;;;;;2.63;1.60;;;;;;;;;;4977373;28;20499;-85
2023/12/04 05:43:41;;;;;;;3.45;1.70;;;;;;;;;;4975443;28;20066;-85
2023/12/04 05:46:06;;;;;;;2.40;1.50;;;;;;;;;;4975325;28;20106;-86
2023/12/04 05:48:32;;;;;;;2.70;1.75;;;;;;;;;;4975434;28;20033;-86
2023/12/04 05:50:57;;;;;;;4.50;2.00;;;;;;;;;;4976463;28;20035;-85
2023/12/04 05:53:23;;;;;;;4.63;1.98;;;;;;;;;;4989175;28;20026;-85
2023/12/04 05:55:48;;;;;;;3.92;2.00;;;;;;;;;;4975381;28;20035;-85
2023/12/04 05:58:14;;;;;;;4.10;1.92;;;;;;;;;;4976243;28;20031;-85
2023/12/04 06:00:40;;;;;;;5.38;2.92;;;;;;;;;;4977047;28;20035;-85
2023/12/04 06:03:06;;;;;;;5.13;2.53;;;;;;;;;;4977872;28;20388;-85
2023/12/04 06:05:31;;;;;;;3.10;1.50;;;;;;;;;;4975001;28;20045;-85
2023/12/04 06:07:57;;;;;;;3.88;1.83;;;;;;;;;;4973632;28;20038;-85
2023/12/04 06:10:23;;;;;;;1.88;1.33;;;;;;;;;;4976142;28;20378;-85
2023/12/04 06:12:48;;;;;;;3.45;1.80;;;;;;;;;;4978120;28;20029;-85
2023/12/04 06:15:14;;;;;;;2.85;1.45;;;;;;;;;;4974707;28;20065;-85
2023/12/04 06:17:39;;;;;;;2.28;1.50;;;;;;;;;;4986931;28;20035;-85
2023/12/04 06:20:06;;;;;;;2.70;1.45;;;;;;;;;;4977327;28;20038;-85
2023/12/04 06:22:32;;;;;;;4.35;1.55;;;;;;;;;;4975629;28;20047;-87
2023/12/04 06:24:57;;;;;;;2.92;1.63;;;;;;;;;;4977879;28;20093;-85
2023/12/04 06:27:23;;;;;;;2.60;1.50;;;;;;;;;;4979215;28;20508;-85
2023/12/04 06:29:50;;;;;;;3.10;1.30;;;;;;;;;;4975970;28;20041;-86
2023/12/04 06:32:16;;;;;;;2.55;1.33;;;;;;;;;;4974879;28;20071;-87
2023/12/04 06:34:42;;;;;;;2.40;1.40;;;;;;;;;;4979286;28;20033;-86
2023/12/04 06:37:12;;;;;;;3.97;1.80;;;;;;;;;;4978575;28;20093;-85
2023/12/04 06:39:39;;;;;;;3.25;1.70;;;;;;;;;;4973698;28;20039;-85
2023/12/04 06:42:06;;;;;;;2.85;1.60;;;;;;;;;;4976213;28;20493;-86
2023/12/04 06:44:32;;;;;;;3.15;1.85;;;;;;;;;;4977861;28;20038;-85
2023/12/04 06:47:00;;;;;;;4.00;2.10;;;;;;;;;;4977371;28;20031;-86
2023/12/04 06:49:30;;;;;;;3.30;1.45;;;;;;;;;;4971603;28;20031;-86
2023/12/04 06:51:56;;;;;;;2.63;1.52;;;;;;;;;;4976715;28;20030;-86
2023/12/04 06:54:21;;;;;;;2.58;1.50;;;;;;;;;;4980845;28;20101;-86
2023/12/04 06:56:47;;;;;;;4.55;1.60;;;;;;;;;;4979012;28;20386;-85
2023/12/04 06:59:12;;;;;;;2.72;1.50;;;;;;;;;;4979104;28;20481;-86
2023/12/04 07:01:38;;;;;;;2.50;1.30;;;;;;;;;;4972275;28;20038;-85
2023/12/04 07:04:09;;;;;;;3.80;1.70;;;;;;;;;;4981715;28;20132;-86
2023/12/04 07:06:39;;;;;;;2.03;1.38;;;;;;;;;;4987314;28;20038;-85
2023/12/04 07:09:05;;;;;;;2.95;1.52;;;;;;;;;;4976435;28;20038;-85
2023/12/04 07:11:32;;;;;;;2.67;1.38;;;;;;;;;;4977391;28;20035;-85
2023/12/04 07:13:58;;;;;;;3.17;1.60;;;;;;;;;;4983800;28;20054;-85
2023/12/04 07:16:24;;;;;;;3.28;1.88;;;;;;;;;;4980842;28;20034;-85
2023/12/04 07:18:49;;;;;;;3.00;1.40;;;;;;;;;;4982052;28;20035;-85
2023/12/04 07:21:15;;;;;;;2.08;1.33;;;;;;;;;;4975482;28;20579;-86
2023/12/04 07:23:40;;;;;;;2.58;1.30;;;;;;;;;;4981101;28;20444;-87
2023/12/04 07:26:06;;;;;;;2.78;1.40;;;;;;;;;;4980361;28;20046;-85
2023/12/04 07:28:32;;;;;;;1.95;1.10;;;;;;;;;;4974374;28;20413;-85
2023/12/04 07:30:58;;;;;;;2.72;1.35;;;;;;;;;;4980176;28;20106;-85
2023/12/04 07:33:23;;;;;;;2.75;1.45;;;;;;;;;;4976890;28;20078;-86
2023/12/04 07:35:49;;;;;;;2.25;1.50;;;;;;;;;;4978245;28;20038;-85
2023/12/04 07:38:14;;;;;;;2.30;0.65;;;;;;;;;;4978530;28;20042;-83
2023/12/04 07:40:40;;;;;;;3.25;1.50;;;;;;;;;;4979430;28;20055;-85
2023/12/04 07:43:05;;;;;;;2.92;1.30;;;;;;;;;;4979938;28;20066;-85
2023/12/04 07:45:31;;;;;;;2.88;1.35;;;;;;;;;;4977211;28;20046;-85
2023/12/04 07:47:56;;;;;;;3.72;1.40;;;;;;;;;;4980218;28;20043;-84
2023/12/04 07:50:22;;;;;;;2.22;1.20;;;;;;;;;;4976359;28;20049;-86
2023/12/04 07:52:47;;;;;;;1.88;1.20;;;;;;;;;;4976646;28;20027;-83
2023/12/04 07:55:12;;;;;;;2.55;1.20;;;;;;;;;;4974835;28;20097;-82
2023/12/04 07:57:38;;;;;;;2.50;1.40;;;;;;;;;;4976806;28;20106;-83
2023/12/04 08:00:04;;;;;;;2.95;1.52;;;;;;;;;;4971237;28;20134;-83
2023/12/04 08:02:30;;;;;;;2.65;1.50;;;;;;;;;;4968904;28;20034;-82
2023/12/04 08:04:56;;;;;;;2.78;1.35;;;;;;;;;;4967790;28;20042;-83
2023/12/04 08:07:21;;;;;;;4.18;1.58;;;;;;;;;;4970845;28;20034;-82
2023/12/04 08:09:47;;;;;;;3.78;1.50;;;;;;;;;;4972011;28;20412;-82
2023/12/04 08:12:12;;;;;;;10.90;6.22;;;;;;;;;;4968086;28;20088;-82
2023/12/04 08:14:38;;;;;;;12.85;6.97;;;;;;;;;;4967232;28;20041;-82
2023/12/04 08:17:03;;;;;;;5.68;3.60;;;;;;;;;;4984610;28;20038;-83
2023/12/04 08:19:29;;;;;;;8.68;5.05;;;;;;;;;;4969362;28;20510;-83
2023/12/04 08:21:55;;;;;;;10.07;6.32;;;;;;;;;;4972842;28;20039;-84
2023/12/04 08:24:21;;;;;;;7.60;4.43;;;;;;;;;;4967784;28;20109;-84
2023/12/04 08:26:46;;;;;;;3.58;1.83;;;;;;;;;;4975898;28;20027;-84
2023/12/04 08:29:12;;;;;;;5.60;2.60;;;;;;;;;;4967052;28;20410;-83
2023/12/04 08:31:37;;;;;;;4.88;2.50;;;;;;;;;;4970981;28;20081;-84
2023/12/04 08:34:03;;;;;;;3.85;1.77;;;;;;;;;;4968549;28;20046;-86
2023/12/04 08:36:28;;;;;;;6.18;2.90;;;;;;;;;;4975647;28;20037;-86
2023/12/04 08:38:54;;;;;;;7.22;4.28;;;;;;;;;;4971589;28;20018;-86
2023/12/04 08:41:20;;;;;;;5.25;3.17;;;;;;;;;;4964998;28;20042;-84
2023/12/04 08:43:45;;;;;;;4.85;3.00;;;;;;;;;;4974654;28;20054;-86
2023/12/04 08:46:14;;;;;;;6.00;2.80;;;;;;;;;;4977790;28;20047;-85
2023/12/04 08:48:43;;;;;;;4.55;2.80;;;;;;;;;;4971916;28;20098;-84
2023/12/04 08:51:15;;;;;;;17.63;8.00;;;;;;;;;;4973814;28;20070;-84
2023/12/04 08:53:40;;;;;;;3.58;2.00;;;;;;;;;;4968641;28;20028;-87
2023/12/04 08:56:06;;;;;;;3.90;1.80;;;;;;;;;;4986937;28;20678;-84
2023/12/04 08:58:32;;;;;;;6.03;2.50;;;;;;;;;;4973738;28;20122;-84
2023/12/04 09:00:58;;;;;;;4.65;2.50;;;;;;;;;;4973361;28;20027;-85
2023/12/04 09:03:23;;;;;;;3.45;2.00;;;;;;;;;;4969430;28;20523;-85
2023/12/04 09:05:51;;;;;;;2.97;1.83;;;;;;;;;;4974785;28;20038;-85
2023/12/04 09:08:18;;;;;;;4.78;2.13;;;;;;;;;;4973603;28;20039;-85
2023/12/04 09:10:44;;;;;;;4.72;2.13;;;;;;;;;;4972201;28;20417;-85
2023/12/04 09:13:09;;;;;;;25.85;10.05;;;;;;;;;;4970561;28;20054;-84
2023/12/04 09:15:35;;;;;;;13.00;5.53;;;;;;;;;;4975462;28;20035;-85
2023/12/04 09:18:00;;;;;;;15.38;7.00;;;;;;;;;;4972791;28;20137;-85
2023/12/04 09:20:25;;;;;;;5.20;2.63;;;;;;;;;;4973831;28;20033;-85
2023/12/04 09:22:51;;;;;;;7.43;3.50;;;;;;;;;;4975891;28;20041;-84
2023/12/04 09:25:16;;;;;;;5.75;2.83;;;;;;;;;;4975196;28;20122;-85
2023/12/04 09:27:42;;;;;;;4.40;2.30;;;;;;;;;;4972579;28;20035;-85
2023/12/04 09:30:08;;;;;;;5.97;2.83;;;;;;;;;;4973464;28;20047;-84
2023/12/04 09:32:33;;;;;;;4.18;2.53;;;;;;;;;;4977730;28;20031;-84
2023/12/04 09:34:59;;;;;;;6.65;3.38;;;;;;;;;;4968196;28;20074;-84
2023/12/04 09:37:25;;;;;;;4.70;3.08;;;;;;;;;;4974841;28;20484;-85
2023/12/04 09:39:50;;;;;;;4.75;3.10;;;;;;;;;;4975518;28;20085;-84
2023/12/04 09:42:18;;;;;;;7.05;2.95;;;;;;;;;;4973349;28;20039;-85
2023/12/04 09:44:44;;;;;;;6.32;3.53;;;;;;;;;;4977351;28;20034;-84
2023/12/04 09:47:10;;;;;;;6.40;2.70;;;;;;;;;;4975619;28;20628;-85
2023/12/04 09:49:37;;;;;;;5.28;3.03;;;;;;;;;;4971185;28;20034;-85
2023/12/04 09:52:02;;;;;;;9.52;5.88;;;;;;;;;;4985556;28;20035;-85
2023/12/04 09:54:29;;;;;;;12.35;6.50;;;;;;;;;;4971550;28;20030;-85
2023/12/04 09:56:55;;;;;;;31.33;10.45;;;;;;;;;;4977497;28;20413;-85
2023/12/04 09:59:27;;;;;;;19.52;8.88;;;;;;;;;;4981734;28;20568;-84
2023/12/04 10:01:52;;;;;;;20.52;9.60;;;;;;;;;;4977620;28;20514;-85
2023/12/04 10:04:19;;;;;;;23.38;11.48;;;;;;;;;;4981075;28;20046;-85
2023/12/04 10:06:45;;;;;;;12.63;3.65;;;;;;;;;;4992167;28;20031;-85
2023/12/04 10:09:13;;;;;;;5.85;2.80;;;;;;;;;;4983249;28;20031;-85
2023/12/04 10:11:41;;;;;;;5.35;2.50;;;;;;;;;;4982906;28;20031;-85
2023/12/04 10:14:15;;;;;;;2.92;1.90;;;;;;;;;;4975856;28;20042;-84
2023/12/04 10:16:41;;;;;;;5.97;3.90;;;;;;;;;;4974738;28;20035;-85
2023/12/04 10:19:26;;;;;;;5.55;3.13;;;;;;;;;;4979410;28;20046;-85
2023/12/04 10:21:53;;;;;;;7.85;3.72;;;;;;;;;;4977551;28;20043;-85
2023/12/04 10:24:36;;;;;;;5.05;3.30;;;;;;;;;;4976154;28;20113;-83
2023/12/04 10:27:08;;;;;;;5.25;3.22;;;;;;;;;;4974564;28;20127;-82
2023/12/04 10:29:48;;;;;;;6.10;3.35;;;;;;;;;;4988276;28;20126;-83
2023/12/04 10:32:17;;;;;;;6.22;3.63;;;;;;;;;;4986059;28;20027;-82
2023/12/04 10:34:43;;;;;;;11.27;5.63;;;;;;;;;;4978595;28;20413;-82
2023/12/04 10:37:10;;;;;;;17.98;7.68;;;;;;;;;;4976530;28;20039;-82
2023/12/04 10:39:47;;;;;;;11.50;5.80;;;;;;;;;;4973492;28;20035;-82
2023/12/04 10:42:12;;;;;;;7.75;4.30;;;;;;;;;;4973510;28;20046;-82
2023/12/04 10:44:40;;;;;;;8.57;4.15;;;;;;;;;;4978156;28;20023;-82
2023/12/04 10:47:07;;;;;;;6.78;4.28;;;;;;;;;;4978602;28;20513;-83
2023/12/04 10:49:34;;;;;;;8.55;4.82;;;;;;;;;;4973536;28;20504;-83
2023/12/04 10:52:01;;;;;;;9.15;4.60;;;;;;;;;;4979130;28;20138;-82
2023/12/04 10:54:27;;;;;;;7.47;4.68;;;;;;;;;;4978315;28;20320;-83
2023/12/04 10:57:00;;;;;;;8.18;4.63;;;;;;;;;;4981604;28;20617;-82
2023/12/04 10:59:27;;;;;;;;;;;;;;;;;;4971370;28;20035;-80
2023/12/04 11:01:55;;;;;;;7.68;4.28;;;;;;;;;;4976087;28;19956;-83
2023/12/04 11:04:25;;;;;;;8.25;4.57;;;;;;;;;;4976097;28;20053;-83
2023/12/04 11:06:53;;;;;;;7.55;4.57;;;;;;;;;;4972895;28;20043;-82
2023/12/04 11:09:21;;;;;;;7.43;4.10;;;;;;;;;;4970337;28;20556;-82
2023/12/04 11:11:53;;;;;;;6.40;4.00;;;;;;;;;;4971976;28;20070;-82
2023/12/04 11:14:22;;;;;;;7.20;4.03;;;;;;;;;;4988076;28;20102;-82
2023/12/04 11:16:56;;;;;;;5.72;3.78;;;;;;;;;;4975518;28;20034;-83
2023/12/04 11:19:57;;;;;;;6.15;3.80;;;;;;;;;;4975872;28;20042;-80
2023/12/04 11:22:25;;;;;;;6.85;3.75;;;;;;;;;;4978978;28;20038;-82
2023/12/04 11:24:51;;;;;;;8.85;4.35;;;;;;;;;;4969449;28;20095;-81
2023/12/04 11:27:21;;;;;;;8.27;4.15;;;;;;;;;;4985167;28;20042;-82
2023/12/04 11:29:47;;;;;;;8.32;4.53;;;;;;;;;;4977887;28;20038;-82
2023/12/04 11:32:16;;;;;;;8.80;4.40;;;;;;;;;;4982847;28;20069;-83
2023/12/04 11:34:55;;;;;;;7.20;4.30;;;;;;;;;;4976758;28;20157;-82
2023/12/04 11:37:21;;;;;;;7.90;4.32;;;;;;;;;;4987201;28;20346;-83
2023/12/04 11:39:50;;;;;;;7.43;4.38;;;;;;;;;;4971790;28;20027;-82
2023/12/04 11:42:20;;;;;;;6.78;4.28;;;;;;;;;;4976414;28;20038;-81
2023/12/04 11:44:48;;;;;;;7.85;4.53;;;;;;;;;;4976017;28;20037;-83
2023/12/04 11:47:13;;;;;;;7.40;4.40;;;;;;;;;;4977135;28;20039;-82
2023/12/04 11:49:39;;;;;;;7.32;4.15;;;;;;;;;;4978103;28;20035;-83
2023/12/04 11:52:06;;;;;;;8.02;4.65;;;;;;;;;;4975815;28;20127;-83
2023/12/04 11:54:57;;;;;;;7.57;4.20;;;;;;;;;;4978754;28;20033;-83
2023/12/04 11:57:24;;;;;;;8.73;4.28;;;;;;;;;;4976608;28;20173;-83
2023/12/04 11:59:49;;;;;;;10.82;5.68;;;;;;;;;;4974488;28;20034;-82
2023/12/04 12:02:15;;;;;;;7.43;4.63;;;;;;;;;;4972042;28;20043;-86
2023/12/04 12:04:41;;;;;;;14.90;6.35;;;;;;;;;;4976696;28;20372;-83
2023/12/04 12:07:07;;;;;;;11.95;5.60;;;;;;;;;;4977879;28;20093;-83
2023/12/04 12:09:32;;;;;;;15.00;5.57;;;;;;;;;;4976952;28;20366;-83
2023/12/04 12:12:02;;;;;;;9.80;4.43;;;;;;;;;;4990896;28;20037;-83
2023/12/04 12:14:29;;;;;;;11.32;5.78;;;;;;;;;;4968389;28;20042;-83
2023/12/04 12:16:55;;;;;;;13.00;6.15;;;;;;;;;;4973876;28;20035;-83
2023/12/04 12:19:21;;;;;;;10.18;5.47;;;;;;;;;;4974107;28;20526;-83
2023/12/04 12:21:49;;;;;;;22.25;9.35;;;;;;;;;;4973164;28;20032;-83
2023/12/04 12:24:14;;;;;;;21.70;9.75;;;;;;;;;;4970323;28;20031;-83
2023/12/04 12:26:40;;;;;;;36.53;16.75;;;;;;;;;;4970445;28;20033;-82
2023/12/04 12:29:06;;;;;;;11.73;6.43;;;;;;;;;;4973727;28;20106;-83
2023/12/04 12:31:32;;;;;;;47.55;22.05;;;;;;;;;;4972076;28;20057;-83
2023/12/04 12:33:57;;;;;;;37.25;18.50;;;;;;;;;;4975246;28;20026;-83
2023/12/04 12:36:23;;;;;;;16.13;9.48;;;;;;;;;;4978244;28;20401;-83
2023/12/04 12:38:49;;;;;;;22.50;11.88;;;;;;;;;;4974475;28;20027;-82
2023/12/04 12:41:16;;;;;;;34.35;17.35;;;;;;;;;;4971746;28;20081;-82
2023/12/04 12:43:42;;;;;;;43.72;24.70;;;;;;;;;;4975024;28;20026;-82
2023/12/04 12:46:09;;;;;;;67.68;39.67;;;;;;;;;;4975539;28;20897;-83
2023/12/04 12:48:35;;;;;;;19.17;9.70;;;;;;;;;;4971107;28;20038;-83
2023/12/04 12:51:02;;;;;;;15.77;9.65;;;;;;;;;;4970384;28;20050;-83
2023/12/04 12:53:28;;;;;;;46.00;20.42;;;;;;;;;;4971054;28;20030;-84
2023/12/04 12:55:53;;;;;;;32.65;15.43;;;;;;;;;;4976232;28;20737;-83
2023/12/04 12:58:20;;;;;;;63.95;27.73;;;;;;;;;;4985894;28;20045;-84
2023/12/04 13:00:47;;;;;;;51.85;23.23;;;;;;;;;;4970392;28;20043;-85
2023/12/04 13:03:16;;;;;;;24.02;12.63;;;;;;;;;;4967826;28;20038;-84
2023/12/04 13:05:41;;;;;;;13.23;7.95;;;;;;;;;;4970351;28;20394;-83
2023/12/04 13:08:07;;;;;;;17.50;10.82;;;;;;;;;;4976489;28;20042;-82
2023/12/04 13:10:32;;;;;;;18.70;9.60;;;;;;;;;;4974747;28;20046;-83
2023/12/04 13:12:59;;;;;;;16.00;8.60;;;;;;;;;;4968624;28;20034;-84
2023/12/04 13:15:26;;;;;;;23.08;12.20;;;;;;;;;;4979961;28;20023;-82
2023/12/04 13:17:51;;;;;;;35.90;17.92;;;;;;;;;;4984413;28;20035;-81
2023/12/04 13:20:17;;;;;;;17.85;10.45;;;;;;;;;;4973334;28;20540;-83
2023/12/04 13:22:43;;;;;;;29.67;15.30;;;;;;;;;;4967558;28;20071;-83
2023/12/04 13:25:09;;;;;;;26.92;14.98;;;;;;;;;;4977633;28;20038;-83
2023/12/04 13:27:38;;;;;;;20.88;9.82;;;;;;;;;;4972007;28;20050;-84
2023/12/04 13:30:06;;;;;;;9.85;5.65;;;;;;;;;;4974190;28;20041;-83
2023/12/04 13:32:33;;;;;;;12.57;7.18;;;;;;;;;;4980048;28;20023;-83
2023/12/04 13:34:59;;;;;;;14.30;7.60;;;;;;;;;;4980088;28;20401;-84
2023/12/04 13:37:26;;;;;;;14.43;8.55;;;;;;;;;;4975406;28;20162;-84
2023/12/04 13:39:57;;;;;;;10.80;5.88;;;;;;;;;;4972159;28;20046;-84
2023/12/04 13:45:12;;;;;;;11.73;6.55;;;;;;;;;;4972053;28;20094;-83
2023/12/04 13:47:38;;;;;;;11.82;6.85;;;;;;;;;;4972631;28;20034;-82
2023/12/04 13:50:08;;;;;;;12.55;7.13;;;;;;;;;;4986908;28;20049;-84
2023/12/04 13:52:35;;;;;;;12.23;6.78;;;;;;;;;;4977119;28;20023;-83
2023/12/04 13:55:01;;;;;;;12.18;6.43;;;;;;;;;;4972793;28;20034;-83
2023/12/04 13:57:44;;;;;;;15.73;7.20;;;;;;;;;;4968942;28;20508;-82
2023/12/04 14:00:10;;;;;;;13.85;7.20;;;;;;;;;;4987694;28;20125;-83
2023/12/04 14:02:37;;;;;;;14.13;7.38;;;;;;;;;;4974644;28;20490;-83
2023/12/04 14:05:03;;;;;;;12.98;6.95;;;;;;;;;;4965970;28;20117;-83
2023/12/04 14:07:28;;;;;;;12.45;7.03;;;;;;;;;;4973812;28;20058;-83
2023/12/04 14:09:54;;;;;;;12.52;7.00;;;;;;;;;;4979646;28;20042;-84
2023/12/04 14:12:20;;;;;;;13.95;6.45;;;;;;;;;;4970596;28;20042;-83
2023/12/04 14:14:45;;;;;;;14.32;6.78;;;;;;;;;;4985885;28;20062;-83
2023/12/04 14:17:11;;;;;;;16.17;7.07;;;;;;;;;;4970267;28;20039;-83
2023/12/04 14:19:39;;;;;;;22.98;14.13;;;;;;;;;;4972654;28;20031;-85
2023/12/04 14:22:05;;;;;;;19.23;10.57;;;;;;;;;;4979397;28;20525;-84
2023/12/04 14:24:31;;;;;;;20.42;10.07;;;;;;;;;;4980940;28;20038;-83
2023/12/04 14:26:56;;;;;;;23.80;13.23;;;;;;;;;;4977001;28;20038;-83
2023/12/04 14:29:21;;;;;;;30.58;15.32;;;;;;;;;;4972273;28;20113;-83
2023/12/04 14:31:47;;;;;;;22.92;11.98;;;;;;;;;;4974758;28;20035;-82
2023/12/04 14:34:12;;;;;;;30.90;17.20;;;;;;;;;;4972217;28;20043;-80
2023/12/04 14:36:38;;;;;;;21.05;12.38;;;;;;;;;;4972933;28;20038;-82